Time;durP1;ratioP1;P1;durP2;ratioP2;P2;SDS_P1;SDS_P2;PMS_P1;PMS_P2;Temp;Humidity;BMP_temperature;BMP_pressure;BME280_temperature;BME280_humidity;BME280_pressure;Samples;Min_cycle;Max_cycle;Signal;HPM_P1;HPM_P2
2023/08/18 00:01:16;;;;;;;1.83;0.40;;;17.00;99.90;;;;;;5042652;28;20052;-81
2023/08/18 00:03:42;;;;;;;0.93;0.45;;;17.50;99.90;;;;;;5049736;28;20059;-82
2023/08/18 00:06:07;;;;;;;1.55;0.63;;;17.00;99.90;;;;;;5032051;28;20460;-83
2023/08/18 00:08:33;;;;;;;4.32;0.70;;;17.00;99.90;;;;;;5046852;28;20036;-80
2023/08/18 00:10:59;;;;;;;4.30;0.73;;;17.00;99.90;;;;;;5041273;28;20495;-81
2023/08/18 00:13:25;;;;;;;5.85;0.88;;;17.00;99.90;;;;;;5042269;28;20132;-86
2023/08/18 00:15:50;;;;;;;2.00;1.13;;;17.10;99.90;;;;;;5038097;28;20098;-83
2023/08/18 00:18:16;;;;;;;3.95;0.85;;;17.00;99.90;;;;;;5039760;28;20045;-83
2023/08/18 00:20:41;;;;;;;4.18;0.90;;;17.00;99.90;;;;;;5047098;28;20040;-81
2023/08/18 00:23:07;;;;;;;2.05;0.85;;;16.90;99.90;;;;;;5042606;28;20045;-82
2023/08/18 00:25:33;;;;;;;3.33;0.70;;;16.90;99.90;;;;;;5039993;28;20041;-80
2023/08/18 00:27:59;;;;;;;3.60;1.20;;;16.90;99.90;;;;;;5045768;28;20112;-80
2023/08/18 00:30:24;;;;;;;3.85;0.60;;;16.90;99.90;;;;;;5045737;28;20088;-84
2023/08/18 00:32:53;;;;;;;0.77;0.57;;;16.90;99.90;;;;;;5047717;28;20457;-87
2023/08/18 00:35:19;;;;;;;1.83;0.70;;;17.10;99.90;;;;;;5044970;28;20045;-80
2023/08/18 00:37:45;;;;;;;2.53;1.15;;;16.90;99.90;;;;;;5048858;28;20043;-81
2023/08/18 00:40:11;;;;;;;2.35;0.90;;;16.90;99.90;;;;;;5029815;28;20040;-85
2023/08/18 00:42:41;;;;;;;2.42;0.93;;;16.90;99.90;;;;;;5051005;28;20045;-79
2023/08/18 00:45:07;;;;;;;1.33;0.70;;;16.90;99.90;;;;;;5020314;28;20268;-81
2023/08/18 00:47:33;;;;;;;2.00;0.80;;;16.90;99.90;;;;;;5047424;28;20037;-81
2023/08/18 00:49:59;;;;;;;3.63;0.90;;;17.00;99.90;;;;;;5022545;28;20045;-85
2023/08/18 00:52:26;;;;;;;1.95;0.90;;;16.90;99.90;;;;;;5042810;28;20409;-85
2023/08/18 00:54:52;;;;;;;4.03;0.80;;;16.90;99.90;;;;;;5046326;28;20151;-84
2023/08/18 00:57:21;;;;;;;3.67;0.80;;;17.40;99.90;;;;;;5048701;28;20083;-81
2023/08/18 00:59:48;;;;;;;2.45;1.10;;;16.90;99.90;;;;;;5044040;28;20059;-82
2023/08/18 01:02:13;;;;;;;1.67;0.90;;;17.70;99.90;;;;;;5045952;28;20094;-81
2023/08/18 01:04:39;;;;;;;2.72;0.93;;;17.90;99.90;;;;;;5047896;28;20041;-84
2023/08/18 01:07:05;;;;;;;1.15;0.77;;;17.70;99.90;;;;;;5030585;28;20045;-84
2023/08/18 01:09:31;;;;;;;1.10;0.90;;;16.90;99.90;;;;;;5023886;28;20051;-80
2023/08/18 01:12:24;;;;;;;4.43;0.80;;;16.90;99.90;;;;;;5029042;28;20049;-84
2023/08/18 01:15:03;;;;;;;4.00;1.13;;;16.90;99.90;;;;;;5029429;28;20812;-79
2023/08/18 01:17:36;;;;;;;1.20;0.80;;;16.90;99.90;;;;;;5041763;28;20056;-81
2023/08/18 01:20:03;;;;;;;4.40;1.52;;;16.90;99.90;;;;;;5040084;28;20173;-81
2023/08/18 01:22:31;;;;;;;1.27;0.80;;;16.90;99.90;;;;;;5040912;28;20052;-80
2023/08/18 01:25:00;;;;;;;2.38;1.08;;;16.90;99.90;;;;;;5025284;28;20048;-83
2023/08/18 01:27:26;;;;;;;1.50;0.73;;;16.90;99.90;;;;;;5031296;28;20091;-79
2023/08/18 01:29:51;;;;;;;3.35;0.70;;;16.90;99.90;;;;;;5046775;28;20049;-81
2023/08/18 01:32:18;;;;;;;1.45;1.00;;;17.30;99.90;;;;;;5040374;28;20128;-82
2023/08/18 01:34:47;;;;;;;2.53;0.90;;;16.90;99.90;;;;;;5041310;28;20132;-79
2023/08/18 01:37:15;;;;;;;4.40;0.88;;;16.90;99.90;;;;;;5051393;28;20048;-81
2023/08/18 01:39:42;;;;;;;4.65;0.88;;;16.80;99.90;;;;;;5035626;28;20040;-81
2023/08/18 01:42:08;;;;;;;1.73;0.88;;;16.80;99.90;;;;;;5029152;28;20049;-80
2023/08/18 01:44:33;;;;;;;3.65;0.82;;;16.80;99.90;;;;;;5040892;28;20041;-81
2023/08/18 01:46:59;;;;;;;1.42;1.02;;;16.80;99.90;;;;;;5046848;28;20056;-80
2023/08/18 01:49:25;;;;;;;1.88;0.90;;;16.80;99.90;;;;;;5053435;28;20029;-79
2023/08/18 01:51:50;;;;;;;3.28;1.10;;;17.10;99.90;;;;;;5031404;28;20314;-80
2023/08/18 01:54:16;;;;;;;2.25;0.95;;;16.80;99.90;;;;;;5050662;28;20504;-81
2023/08/18 01:56:42;;;;;;;1.15;1.05;;;16.80;99.90;;;;;;5052541;28;20385;-80
2023/08/18 01:59:07;;;;;;;2.53;1.15;;;16.80;99.90;;;;;;5034162;28;20040;-80
2023/08/18 02:01:33;;;;;;;3.80;0.95;;;16.80;99.90;;;;;;5049265;28;20047;-79
2023/08/18 02:03:58;;;;;;;4.78;1.17;;;16.80;99.90;;;;;;5054044;28;20037;-81
2023/08/18 02:06:24;;;;;;;4.55;1.00;;;16.80;99.90;;;;;;5038194;28;20126;-81
2023/08/18 02:08:50;;;;;;;2.53;0.95;;;16.80;99.90;;;;;;5052997;28;20045;-82
2023/08/18 02:11:15;;;;;;;3.35;1.10;;;16.80;99.90;;;;;;5054765;28;20037;-80
2023/08/18 02:13:42;;;;;;;1.27;0.75;;;16.70;99.90;;;;;;5039366;28;20455;-81
2023/08/18 02:16:07;;;;;;;20.48;16.33;;;16.70;99.90;;;;;;5046738;28;20160;-82
2023/08/18 02:18:33;;;;;;;6.30;4.95;;;16.70;99.90;;;;;;5051237;28;20132;-80
2023/08/18 02:21:00;;;;;;;3.13;1.30;;;16.70;99.90;;;;;;5053890;28;20102;-80
2023/08/18 02:23:25;;;;;;;1.85;1.15;;;16.90;99.90;;;;;;5054412;28;20123;-79
2023/08/18 02:25:57;;;;;;;3.15;1.27;;;16.70;99.90;;;;;;5054091;28;20123;-80
2023/08/18 02:28:23;;;;;;;2.65;1.15;;;16.70;99.90;;;;;;5053327;28;20040;-80
2023/08/18 02:31:06;;;;;;;1.60;1.17;;;16.70;99.90;;;;;;5053035;28;20060;-81
2023/08/18 02:33:33;;;;;;;3.63;1.40;;;16.70;99.90;;;;;;5053301;28;20066;-82
2023/08/18 02:36:00;;;;;;;3.92;1.40;;;16.70;99.90;;;;;;5050828;28;20044;-80
2023/08/18 02:38:29;;;;;;;2.20;1.27;;;16.70;99.90;;;;;;5048365;28;20056;-80
2023/08/18 02:40:55;;;;;;;2.47;1.23;;;16.70;99.90;;;;;;5048571;28;20563;-80
2023/08/18 02:43:22;;;;;;;3.17;1.75;;;16.70;99.90;;;;;;5052266;28;20037;-80
2023/08/18 02:45:48;;;;;;;2.75;1.58;;;16.70;99.90;;;;;;5045984;28;20044;-80
2023/08/18 02:48:16;;;;;;;2.88;1.88;;;16.70;99.90;;;;;;5046726;28;20091;-82
2023/08/18 02:50:41;;;;;;;2.33;1.70;;;16.70;99.90;;;;;;5046668;28;20098;-81
2023/08/18 02:53:07;;;;;;;6.05;1.50;;;16.70;99.90;;;;;;5049992;28;20076;-79
2023/08/18 02:55:36;;;;;;;7.70;2.15;;;16.70;99.90;;;;;;5049836;28;20036;-80
2023/08/18 02:58:03;;;;;;;2.80;1.90;;;16.70;99.90;;;;;;5032660;28;20056;-80
2023/08/18 03:00:29;;;;;;;4.88;2.00;;;16.70;99.90;;;;;;5029357;28;20040;-80
2023/08/18 03:02:54;;;;;;;3.90;2.08;;;16.70;99.90;;;;;;5048579;28;20043;-82
2023/08/18 03:05:20;;;;;;;3.97;2.15;;;16.70;99.90;;;;;;5044043;28;20128;-80
2023/08/18 03:07:46;;;;;;;2.75;1.95;;;16.80;99.90;;;;;;5050272;28;20401;-80
2023/08/18 03:10:12;;;;;;;6.65;2.33;;;16.70;99.90;;;;;;5050057;28;20398;-81
2023/08/18 03:12:37;;;;;;;4.30;2.22;;;16.70;99.90;;;;;;5050810;28;20060;-82
2023/08/18 03:15:04;;;;;;;5.65;2.50;;;16.70;99.90;;;;;;5052689;28;20033;-82
2023/08/18 03:17:30;;;;;;;2.35;1.98;;;16.70;99.90;;;;;;5049480;28;20084;-79
2023/08/18 03:19:55;;;;;;;3.42;2.47;;;16.70;99.90;;;;;;5040301;28;20072;-80
2023/08/18 03:22:21;;;;;;;2.88;2.00;;;16.70;99.90;;;;;;5044068;28;20407;-81
2023/08/18 03:24:47;;;;;;;3.33;1.90;;;16.70;99.90;;;;;;5048576;28;20037;-81
2023/08/18 03:27:13;;;;;;;2.63;2.17;;;16.80;99.90;;;;;;5032317;28;20048;-80
2023/08/18 03:29:38;;;;;;;2.53;2.13;;;16.80;99.90;;;;;;5048629;28;20053;-80
2023/08/18 03:32:05;;;;;;;3.35;2.72;;;16.80;99.90;;;;;;5030150;28;20045;-81
2023/08/18 03:34:31;;;;;;;4.88;3.08;;;16.80;99.90;;;;;;5028434;28;20037;-80
2023/08/18 03:36:57;;;;;;;3.88;2.95;;;16.80;99.90;;;;;;5050617;28;20132;-81
2023/08/18 03:39:22;;;;;;;4.53;3.05;;;16.80;99.90;;;;;;5031920;28;20108;-80
2023/08/18 03:41:48;;;;;;;3.25;2.95;;;16.80;99.90;;;;;;5048588;28;20241;-81
2023/08/18 03:44:14;;;;;;;5.10;3.13;;;16.80;99.90;;;;;;5049610;28;20040;-81
2023/08/18 03:46:39;;;;;;;7.28;3.70;;;16.70;99.90;;;;;;5049234;28;20056;-81
2023/08/18 03:49:06;;;;;;;3.20;2.75;;;16.80;99.90;;;;;;5030747;28;20468;-80
2023/08/18 03:51:33;;;;;;;6.05;3.20;;;16.80;99.90;;;;;;5048022;28;20049;-80
2023/08/18 03:53:59;;;;;;;5.45;3.35;;;17.90;99.90;;;;;;5042871;28;20496;-82
2023/08/18 03:56:24;;;;;;;5.07;3.17;;;16.80;99.90;;;;;;5047176;28;20059;-79
2023/08/18 03:58:50;;;;;;;5.18;3.45;;;16.80;99.90;;;;;;5028832;28;20513;-83
2023/08/18 04:01:16;;;;;;;4.13;2.78;;;16.80;99.90;;;;;;5044197;28;20072;-82
2023/08/18 04:03:43;;;;;;;4.85;3.17;;;16.70;99.90;;;;;;5032677;28;20050;-81
2023/08/18 04:06:09;;;;;;;6.78;3.88;;;16.80;99.90;;;;;;5046805;28;20120;-82
2023/08/18 04:08:40;;;;;;;4.47;3.15;;;16.80;99.90;;;;;;5050595;28;20645;-79
2023/08/18 04:11:07;;;;;;;6.47;3.55;;;16.90;99.90;;;;;;5029857;28;20099;-82
2023/08/18 04:13:32;;;;;;;8.07;3.78;;;16.80;99.90;;;;;;5049020;28;20037;-80
2023/08/18 04:15:58;;;;;;;7.55;3.85;;;17.40;99.90;;;;;;5049820;28;20036;-80
2023/08/18 04:18:24;;;;;;;5.55;3.20;;;16.80;99.90;;;;;;5049001;28;20563;-81
2023/08/18 04:20:50;;;;;;;9.55;4.13;;;16.80;99.90;;;;;;5041531;28;20663;-81
2023/08/18 04:23:16;;;;;;;5.53;3.85;;;16.80;99.90;;;;;;5031205;28;20120;-81
2023/08/18 04:25:42;;;;;;;3.78;3.17;;;16.80;99.90;;;;;;5030186;28;20044;-81
2023/08/18 04:28:08;;;;;;;4.18;3.78;;;16.80;99.90;;;;;;5044186;28;20045;-80
2023/08/18 04:30:34;;;;;;;4.80;3.67;;;16.70;99.90;;;;;;5048697;28;20365;-81
2023/08/18 04:32:59;;;;;;;7.45;4.00;;;16.80;99.90;;;;;;5040733;28;20049;-80
2023/08/18 04:35:25;;;;;;;5.28;3.88;;;16.70;99.90;;;;;;5042775;28;20037;-82
2023/08/18 04:37:53;;;;;;;3.67;3.35;;;16.80;99.90;;;;;;5047795;28;20072;-81
2023/08/18 04:40:18;;;;;;;4.53;3.65;;;16.80;99.90;;;;;;5030513;28;20059;-81
2023/08/18 04:42:44;;;;;;;3.67;3.25;;;16.80;99.90;;;;;;5030175;28;20037;-82
2023/08/18 04:45:12;;;;;;;4.88;4.03;;;16.80;99.90;;;;;;5049304;28;20041;-82
2023/08/18 04:47:40;;;;;;;3.75;3.33;;;16.80;99.90;;;;;;5047547;28;20127;-82
2023/08/18 04:50:06;;;;;;;5.82;3.95;;;16.80;99.90;;;;;;5046144;28;20575;-81
2023/08/18 04:52:31;;;;;;;7.05;4.45;;;16.80;99.90;;;;;;5046545;28;20136;-83
2023/08/18 04:54:57;;;;;;;4.05;3.72;;;16.80;99.90;;;;;;5056022;28;20057;-82
2023/08/18 04:57:23;;;;;;;4.25;3.70;;;16.80;99.90;;;;;;5046038;28;20425;-81
2023/08/18 04:59:48;;;;;;;5.10;3.30;;;16.90;99.90;;;;;;5047405;28;20045;-82
2023/08/18 05:02:15;;;;;;;5.13;3.67;;;16.80;99.90;;;;;;5046928;28;20098;-81
2023/08/18 05:04:41;;;;;;;5.60;3.85;;;16.80;99.90;;;;;;5046772;28;20041;-84
2023/08/18 05:07:07;;;;;;;5.43;3.58;;;16.80;99.90;;;;;;5047716;28;20047;-83
2023/08/18 05:09:34;;;;;;;4.20;3.80;;;16.80;99.90;;;;;;5042880;28;20049;-82
2023/08/18 05:11:59;;;;;;;5.03;3.30;;;16.80;99.90;;;;;;5028611;28;20033;-82
2023/08/18 05:14:25;;;;;;;5.60;3.28;;;16.80;99.90;;;;;;5040935;28;20137;-83
2023/08/18 05:16:51;;;;;;;5.45;3.40;;;16.80;99.90;;;;;;5046460;28;20043;-82
2023/08/18 05:19:17;;;;;;;9.13;3.42;;;16.80;99.90;;;;;;5039845;28;20424;-83
2023/08/18 05:21:42;;;;;;;6.22;3.45;;;16.80;99.90;;;;;;5029414;28;20072;-83
2023/08/18 05:24:08;;;;;;;7.85;3.63;;;16.90;99.90;;;;;;5047780;28;20289;-83
2023/08/18 05:26:33;;;;;;;4.40;3.38;;;16.90;99.90;;;;;;5040356;28;20045;-83
2023/08/18 05:29:00;;;;;;;6.50;3.95;;;16.90;99.90;;;;;;5046623;28;20050;-82
2023/08/18 05:31:26;;;;;;;6.53;3.47;;;16.90;99.90;;;;;;5047505;28;20102;-84
2023/08/18 05:33:51;;;;;;;5.50;3.80;;;16.90;99.90;;;;;;5049065;28;20041;-82
2023/08/18 05:36:18;;;;;;;3.63;3.22;;;16.90;99.90;;;;;;5048156;28;20033;-85
2023/08/18 05:38:43;;;;;;;5.18;3.22;;;17.10;99.90;;;;;;5048363;28;20055;-83
2023/08/18 05:41:13;;;;;;;5.65;3.40;;;16.90;99.90;;;;;;5031128;28;20148;-82
2023/08/18 05:43:40;;;;;;;9.13;3.60;;;16.90;99.90;;;;;;5044881;28;20497;-84
2023/08/18 05:46:07;;;;;;;7.28;4.00;;;16.90;99.90;;;;;;5050297;28;20049;-86
2023/08/18 05:48:33;;;;;;;5.65;4.03;;;16.90;99.90;;;;;;5047107;28;20037;-84
2023/08/18 05:51:00;;;;;;;9.50;4.00;;;17.00;99.90;;;;;;5031292;28;20044;-83
2023/08/18 05:53:26;;;;;;;8.73;4.45;;;17.70;99.90;;;;;;5041222;28;20382;-84
2023/08/18 05:55:52;;;;;;;9.82;4.53;;;16.90;99.90;;;;;;5047168;28;20043;-86
2023/08/18 05:58:18;;;;;;;7.38;4.22;;;17.90;99.90;;;;;;5052183;28;20045;-83
2023/08/18 06:00:44;;;;;;;6.53;5.25;;;16.90;99.90;;;;;;5049058;28;20144;-82
2023/08/18 06:03:10;;;;;;;5.18;4.40;;;16.90;99.90;;;;;;5048875;28;20195;-84
2023/08/18 06:05:36;;;;;;;5.90;4.57;;;16.90;99.90;;;;;;5047876;28;20108;-86
2023/08/18 06:08:02;;;;;;;6.10;4.25;;;16.90;99.90;;;;;;5043151;28;20069;-84
2023/08/18 06:10:29;;;;;;;6.90;3.80;;;16.90;99.90;;;;;;5025298;28;20033;-84
2023/08/18 06:12:55;;;;;;;8.43;3.53;;;16.90;99.90;;;;;;5009430;28;20482;-84
2023/08/18 06:15:22;;;;;;;9.90;5.00;;;17.60;99.90;;;;;;5049966;28;20048;-84
2023/08/18 06:17:49;;;;;;;6.85;4.32;;;16.90;99.90;;;;;;5047606;28;20052;-84
2023/08/18 06:20:15;;;;;;;9.25;5.13;;;16.90;99.90;;;;;;5042864;28;20062;-86
2023/08/18 06:22:40;;;;;;;10.07;5.28;;;17.00;99.90;;;;;;5042551;28;20033;-86
2023/08/18 06:25:07;;;;;;;5.32;4.60;;;16.90;99.90;;;;;;5043837;28;20378;-83
2023/08/18 06:27:33;;;;;;;5.15;4.75;;;17.00;99.90;;;;;;5044664;28;20033;-83
2023/08/18 06:29:58;;;;;;;10.73;8.05;;;16.90;99.90;;;;;;5046809;28;20147;-84
2023/08/18 06:32:24;;;;;;;9.13;4.95;;;16.80;99.90;;;;;;5048237;28;20060;-84
2023/08/18 06:34:50;;;;;;;5.63;4.65;;;17.00;99.90;;;;;;5058952;28;20506;-86
2023/08/18 06:37:16;;;;;;;5.38;4.82;;;17.00;99.90;;;;;;5032815;28;20049;-85
2023/08/18 06:39:42;;;;;;;9.65;4.53;;;17.00;99.90;;;;;;5045365;28;20056;-83
2023/08/18 06:42:07;;;;;;;8.23;4.97;;;17.00;99.90;;;;;;5028696;28;20144;-84
2023/08/18 06:44:34;;;;;;;5.82;4.53;;;17.00;99.90;;;;;;5043476;28;20130;-86
2023/08/18 06:47:00;;;;;;;10.23;5.70;;;17.10;99.90;;;;;;5044634;28;20052;-83
2023/08/18 06:49:26;;;;;;;5.75;4.75;;;17.00;99.90;;;;;;5042967;28;20036;-82
2023/08/18 06:51:52;;;;;;;6.25;4.18;;;17.10;99.90;;;;;;5026388;28;20029;-85
2023/08/18 06:54:18;;;;;;;8.23;4.03;;;17.10;99.90;;;;;;5009397;28;20139;-80
2023/08/18 06:56:44;;;;;;;9.00;3.83;;;17.20;99.90;;;;;;5024012;28;20481;-83
2023/08/18 06:59:12;;;;;;;9.82;4.95;;;17.20;99.90;;;;;;5025885;28;20671;-83
2023/08/18 07:01:41;;;;;;;4.38;3.92;;;17.30;99.90;;;;;;5043355;28;20041;-82
2023/08/18 07:04:07;;;;;;;6.35;4.38;;;17.20;99.90;;;;;;5048880;28;20041;-82
2023/08/18 07:06:34;;;;;;;7.53;4.03;;;17.20;99.90;;;;;;5047306;28;20080;-83
2023/08/18 07:09:00;;;;;;;7.65;4.85;;;17.20;99.90;;;;;;5028275;28;20134;-84
2023/08/18 07:11:26;;;;;;;7.63;4.20;;;17.20;99.90;;;;;;5035073;28;20060;-83
2023/08/18 07:13:52;;;;;;;10.02;4.25;;;17.20;99.90;;;;;;5041229;28;20166;-82
2023/08/18 07:16:18;;;;;;;6.30;4.38;;;17.30;99.90;;;;;;5026733;28;20132;-84
2023/08/18 07:18:43;;;;;;;13.23;4.82;;;17.30;99.90;;;;;;5009761;28;20411;-83
2023/08/18 07:21:09;;;;;;;10.80;5.18;;;17.30;99.90;;;;;;5040290;28;20359;-83
2023/08/18 07:23:35;;;;;;;7.15;4.43;;;17.30;99.90;;;;;;5041669;28;20049;-81
2023/08/18 07:26:01;;;;;;;8.35;4.47;;;17.30;99.90;;;;;;5039359;28;20075;-82
2023/08/18 07:28:27;;;;;;;10.45;4.68;;;17.30;99.90;;;;;;5026500;28;20045;-82
2023/08/18 07:30:52;;;;;;;7.35;4.25;;;17.40;99.90;;;;;;5037463;28;20051;-82
2023/08/18 07:33:18;;;;;;;8.25;4.20;;;17.40;99.90;;;;;;5040104;28;20053;-83
2023/08/18 07:35:45;;;;;;;10.65;5.50;;;17.40;99.90;;;;;;5047646;28;20049;-80
2023/08/18 07:38:11;;;;;;;10.27;5.20;;;17.40;99.90;;;;;;5048425;28;20072;-82
2023/08/18 07:40:36;;;;;;;9.20;5.00;;;17.40;99.90;;;;;;5050017;28;20122;-82
2023/08/18 07:43:03;;;;;;;7.35;4.50;;;17.40;99.90;;;;;;5049967;28;20057;-81
2023/08/18 07:45:29;;;;;;;8.63;4.75;;;17.40;99.90;;;;;;5041026;28;20061;-82
2023/08/18 07:47:55;;;;;;;9.77;5.15;;;17.40;99.90;;;;;;5032182;28;20029;-82
2023/08/18 07:50:21;;;;;;;10.93;5.25;;;17.50;99.90;;;;;;5036437;28;20049;-82
2023/08/18 07:52:47;;;;;;;9.35;4.78;;;17.50;99.90;;;;;;5037629;28;20124;-80
2023/08/18 07:55:13;;;;;;;9.60;4.53;;;17.50;99.90;;;;;;5039076;28;20136;-82
2023/08/18 07:57:39;;;;;;;6.22;3.92;;;17.50;99.90;;;;;;5013953;28;20037;-83
2023/08/18 08:00:16;;;;;;;6.35;3.85;;;17.50;99.90;;;;;;5040410;28;20037;-81
2023/08/18 08:02:42;;;;;;;6.38;4.38;;;17.50;99.90;;;;;;5010806;28;20094;-81
2023/08/18 08:05:08;;;;;;;6.80;4.07;;;17.50;99.90;;;;;;5043784;28;20077;-80
2023/08/18 08:07:34;;;;;;;6.13;3.70;;;17.30;99.90;;;;;;5032353;28;20079;-80
2023/08/18 08:10:04;;;;;;;6.90;4.20;;;17.60;99.90;;;;;;5039512;28;20393;-80
2023/08/18 08:12:31;;;;;;;11.20;4.57;;;17.60;99.90;;;;;;5029537;28;20354;-81
2023/08/18 08:14:58;;;;;;;7.22;4.18;;;17.60;99.90;;;;;;5050142;28;20072;-82
2023/08/18 08:17:24;;;;;;;9.85;4.35;;;17.70;99.90;;;;;;5055145;28;20060;-81
2023/08/18 08:19:50;;;;;;;9.55;5.35;;;17.60;99.90;;;;;;5039623;28;20033;-83
2023/08/18 08:22:18;;;;;;;10.10;4.72;;;17.70;99.90;;;;;;5042970;28;20397;-85
2023/08/18 08:24:44;;;;;;;8.63;4.32;;;17.70;99.90;;;;;;5040127;28;20041;-81
2023/08/18 08:27:10;;;;;;;13.55;5.25;;;17.70;99.90;;;;;;5042081;28;20076;-81
2023/08/18 08:29:36;;;;;;;7.40;4.95;;;17.70;99.90;;;;;;5027910;28;20400;-81
2023/08/18 08:32:01;;;;;;;11.13;5.82;;;17.70;99.90;;;;;;5025174;28;20045;-81
2023/08/18 08:34:27;;;;;;;10.57;5.80;;;17.80;99.90;;;;;;5024740;28;20041;-83
2023/08/18 08:36:53;;;;;;;12.43;6.68;;;18.60;99.90;;;;;;5018420;28;20034;-89
2023/08/18 08:39:19;;;;;;;14.77;7.03;;;17.90;99.90;;;;;;5029732;28;20123;-87
2023/08/18 08:41:45;;;;;;;12.82;6.97;;;18.10;99.90;;;;;;5026447;28;20087;-82
2023/08/18 08:44:11;;;;;;;17.17;7.43;;;18.00;99.90;;;;;;5021668;28;20041;-91
2023/08/18 08:46:37;;;;;;;18.45;7.88;;;18.10;99.90;;;;;;5029368;28;20079;-86
2023/08/18 08:49:07;;;;;;;15.88;7.25;;;18.10;99.90;;;;;;5029536;28;20041;-83
2023/08/18 08:51:38;;;;;;;17.05;8.43;;;18.10;99.90;;;;;;5029564;28;20044;-83
2023/08/18 08:54:06;;;;;;;17.73;7.88;;;18.20;99.90;;;;;;5027148;28;20037;-85
2023/08/18 08:56:35;;;;;;;15.55;7.78;;;18.20;99.90;;;;;;5020791;28;20710;-82
2023/08/18 08:59:01;;;;;;;14.63;7.90;;;18.20;99.90;;;;;;5019801;28;20045;-82
2023/08/18 09:01:26;;;;;;;18.33;7.93;;;18.30;99.90;;;;;;5020946;28;20049;-82
2023/08/18 09:03:53;;;;;;;19.75;8.30;;;18.30;99.90;;;;;;5027874;28;20029;-82
2023/08/18 09:06:19;;;;;;;18.15;7.75;;;18.40;99.90;;;;;;5028592;28;20124;-90
2023/08/18 09:08:45;;;;;;;20.92;8.88;;;18.30;99.90;;;;;;5026602;28;20092;-81
2023/08/18 09:11:11;;;;;;;16.17;7.50;;;18.40;99.90;;;;;;5025513;28;20045;-80
2023/08/18 09:13:37;;;;;;;17.40;7.57;;;18.60;99.90;;;;;;5028107;28;20041;-81
2023/08/18 09:16:06;;;;;;;15.75;6.72;;;18.50;99.90;;;;;;5027194;28;20107;-83
2023/08/18 09:18:33;;;;;;;19.92;8.05;;;18.60;99.90;;;;;;5022212;28;20548;-81
2023/08/18 09:21:04;;;;;;;22.55;8.45;;;18.60;99.90;;;;;;5027950;28;20128;-81
2023/08/18 09:23:30;;;;;;;18.30;7.50;;;18.60;99.90;;;;;;5028724;28;20112;-82
2023/08/18 09:25:59;;;;;;;17.63;7.05;;;18.60;99.90;;;;;;5027766;28;20041;-81
2023/08/18 09:28:26;;;;;;;17.88;7.18;;;18.70;99.90;;;;;;5028296;28;20505;-82
2023/08/18 09:30:52;;;;;;;15.48;7.35;;;18.60;99.90;;;;;;5017664;28;20060;-83
2023/08/18 09:33:21;;;;;;;13.10;7.03;;;18.70;99.90;;;;;;5025670;28;20041;-83
2023/08/18 09:35:56;;;;;;;17.77;7.80;;;19.00;99.90;;;;;;5028211;28;20038;-82
2023/08/18 09:38:24;;;;;;;17.00;7.70;;;18.80;99.90;;;;;;5027908;28;20041;-83
2023/08/18 09:40:55;;;;;;;18.40;7.63;;;18.80;99.90;;;;;;5028969;28;20037;-81
2023/08/18 09:43:21;;;;;;;14.68;7.15;;;18.80;99.90;;;;;;5008666;28;20045;-82
2023/08/18 09:45:47;;;;;;;16.17;7.65;;;18.90;99.90;;;;;;5020126;28;20133;-82
2023/08/18 09:48:15;;;;;;;15.40;6.97;;;18.90;99.90;;;;;;5029345;28;20041;-83
2023/08/18 09:50:47;;;;;;;17.33;7.07;;;18.90;99.90;;;;;;5028014;28;20485;-82
2023/08/18 09:53:15;;;;;;;12.93;6.40;;;19.00;99.90;;;;;;5029805;28;20558;-82
2023/08/18 09:55:44;;;;;;;12.75;6.80;;;19.00;99.90;;;;;;5037011;28;20037;-83
2023/08/18 09:58:22;;;;;;;13.10;7.22;;;19.10;99.90;;;;;;5036606;28;20053;-82
2023/08/18 10:00:56;;;;;;;15.07;7.05;;;19.10;99.90;;;;;;5032465;28;20049;-82
2023/08/18 10:03:25;;;;;;;16.27;6.18;;;19.20;99.90;;;;;;5027143;28;20498;-87
2023/08/18 10:05:53;;;;;;;12.05;6.43;;;19.20;99.90;;;;;;5033445;28;20041;-83
2023/08/18 10:08:21;;;;;;;14.30;6.20;;;19.20;99.90;;;;;;5033766;28;20226;-83
2023/08/18 10:10:48;;;;;;;9.63;6.45;;;19.40;99.90;;;;;;5031954;28;20445;-83
2023/08/18 10:13:14;;;;;;;12.95;6.05;;;19.40;99.90;;;;;;5032220;28;20050;-83
2023/08/18 10:15:40;;;;;;;12.88;5.97;;;19.50;99.90;;;;;;5032129;28;20048;-84
2023/08/18 10:18:09;;;;;;;11.30;6.38;;;19.70;99.90;;;;;;5032521;28;20293;-83
2023/08/18 10:20:35;;;;;;;9.70;6.13;;;19.60;99.90;;;;;;5031888;28;20096;-83
2023/08/18 10:23:02;;;;;;;10.27;5.85;;;19.60;99.90;;;;;;5032369;28;20434;-83
2023/08/18 10:25:29;;;;;;;13.13;6.82;;;19.70;99.90;;;;;;5032031;28;20056;-83
2023/08/18 10:27:56;;;;;;;11.98;6.65;;;19.70;99.90;;;;;;5031541;28;20045;-83
2023/08/18 10:30:27;;;;;;;8.30;6.78;;;19.70;99.90;;;;;;5031959;28;20053;-82
2023/08/18 10:33:00;;;;;;;8.27;5.65;;;19.70;99.90;;;;;;5021783;28;20057;-83
2023/08/18 10:35:27;;;;;;;8.60;6.63;;;19.70;99.90;;;;;;5032628;28;20037;-83
2023/08/18 10:37:58;;;;;;;9.68;6.90;;;19.80;99.90;;;;;;5031985;28;20046;-84
2023/08/18 10:40:25;;;;;;;7.95;5.90;;;19.80;99.90;;;;;;5031916;28;20046;-83
2023/08/18 10:43:12;;;;;;;9.45;6.13;;;19.80;99.90;;;;;;5031672;28;20045;-82
2023/08/18 10:45:40;;;;;;;10.82;6.13;;;19.90;99.90;;;;;;5032505;28;20056;-86
2023/08/18 10:48:06;;;;;;;6.10;5.47;;;20.00;99.90;;;;;;5031510;28;20048;-83
2023/08/18 10:50:34;;;;;;;7.70;6.28;;;20.00;99.90;;;;;;5031319;28;20596;-83
2023/08/18 10:53:01;;;;;;;7.55;5.70;;;20.10;99.90;;;;;;5030406;28;20096;-84
2023/08/18 10:55:28;;;;;;;13.38;6.57;;;20.10;99.90;;;;;;5031481;28;20045;-84
2023/08/18 10:57:54;;;;;;;10.00;6.50;;;20.00;99.90;;;;;;5031679;28;20042;-83
2023/08/18 11:00:20;;;;;;;8.02;5.93;;;20.10;99.90;;;;;;5031345;28;20147;-83
2023/08/18 11:02:49;;;;;;;8.90;7.07;;;20.00;99.90;;;;;;5030697;28;20037;-82
2023/08/18 11:05:20;;;;;;;9.35;6.30;;;20.00;99.90;;;;;;5032105;28;20045;-84
2023/08/18 11:07:46;;;;;;;9.85;5.85;;;20.10;99.90;;;;;;5030677;28;20041;-83
2023/08/18 11:10:19;;;;;;;7.63;5.95;;;20.10;99.90;;;;;;5022624;28;20057;-84
2023/08/18 11:12:46;;;;;;;10.88;6.15;;;20.10;99.90;;;;;;5031369;28;20068;-86
2023/08/18 11:15:13;;;;;;;8.45;6.47;;;20.10;99.90;;;;;;5013769;28;20049;-86
2023/08/18 11:17:39;;;;;;;7.63;6.60;;;20.10;99.90;;;;;;5028850;28;20053;-84
2023/08/18 11:20:11;;;;;;;8.15;6.20;;;20.10;99.90;;;;;;5031984;28;20084;-83
2023/08/18 11:22:38;;;;;;;10.18;6.22;;;20.20;99.90;;;;;;5030762;28;20120;-85
2023/08/18 11:25:05;;;;;;;9.00;5.47;;;20.30;99.90;;;;;;5031920;28;20061;-87
2023/08/18 11:27:31;;;;;;;7.47;6.78;;;20.30;99.90;;;;;;4333152;28;10000692;-82
2023/08/18 11:30:04;;;;;;;6.97;6.30;;;20.30;99.90;;;;;;5028851;28;20047;-82
2023/08/18 11:32:30;;;;;;;10.65;6.88;;;20.40;99.90;;;;;;5028143;28;20053;-82
2023/08/18 11:34:56;;;;;;;9.52;6.88;;;20.40;99.90;;;;;;5035376;28;20059;-82
2023/08/18 11:37:22;;;;;;;7.57;6.72;;;20.50;99.90;;;;;;5038113;28;20041;-82
2023/08/18 11:39:49;;;;;;;8.68;5.60;;;20.50;99.90;;;;;;5031376;28;20045;-81
2023/08/18 11:42:15;;;;;;;7.72;5.70;;;20.60;99.90;;;;;;5031520;28;20050;-84
2023/08/18 11:44:41;;;;;;;7.13;6.00;;;20.60;99.90;;;;;;5028691;28;20037;-83
2023/08/18 11:47:08;;;;;;;6.90;6.05;;;20.70;99.90;;;;;;5020625;28;20132;-84
2023/08/18 11:49:35;;;;;;;8.93;5.90;;;20.80;99.90;;;;;;5032636;28;20034;-84
2023/08/18 11:52:04;;;;;;;7.80;7.05;;;21.00;99.90;;;;;;5034933;28;20059;-86
2023/08/18 11:54:56;;;;;;;7.05;6.13;;;21.00;99.90;;;;;;5029099;28;20037;-85
2023/08/18 11:57:22;;;;;;;10.65;6.82;;;21.10;99.90;;;;;;5011642;28;20072;-83
2023/08/18 11:59:48;;;;;;;7.05;6.35;;;21.20;99.90;;;;;;5030746;28;20064;-84
2023/08/18 12:02:22;;;;;;;7.90;6.63;;;21.20;99.90;;;;;;5009451;28;20095;-83
2023/08/18 12:04:51;;;;;;;7.10;6.40;;;21.20;99.90;;;;;;5028789;28;20037;-82
2023/08/18 12:07:17;;;;;;;9.23;6.20;;;21.10;99.90;;;;;;5028126;28;20266;-82
2023/08/18 12:09:43;;;;;;;7.82;6.20;;;21.20;99.90;;;;;;5029389;28;20049;-83
2023/08/18 12:12:13;;;;;;;8.80;6.70;;;21.10;99.90;;;;;;5031936;28;20134;-83
2023/08/18 12:14:38;;;;;;;8.10;6.30;;;21.20;99.90;;;;;;5032559;28;20320;-84
2023/08/18 12:17:04;;;;;;;9.98;6.30;;;21.20;99.90;;;;;;5021125;28;20393;-83
2023/08/18 12:19:31;;;;;;;8.00;7.20;;;21.20;99.90;;;;;;5027101;28;20561;-83
2023/08/18 12:21:57;;;;;;;7.65;6.65;;;21.20;99.90;;;;;;5029067;28;20049;-84
2023/08/18 12:24:22;;;;;;;8.80;7.53;;;21.30;99.90;;;;;;5029109;28;20287;-83
2023/08/18 12:26:49;;;;;;;7.45;6.68;;;21.30;99.90;;;;;;5022818;28;20041;-82
2023/08/18 12:29:15;;;;;;;10.65;7.30;;;21.30;99.90;;;;;;5042118;28;20500;-82
2023/08/18 12:31:40;;;;;;;8.07;6.88;;;21.40;99.90;;;;;;5015232;28;20077;-82
2023/08/18 12:34:06;;;;;;;11.93;7.18;;;21.40;99.90;;;;;;5030284;28;20087;-80
2023/08/18 12:36:33;;;;;;;9.10;7.50;;;21.40;99.90;;;;;;5049052;28;20070;-81
2023/08/18 12:38:59;;;;;;;9.25;7.13;;;21.50;99.90;;;;;;5029182;28;20424;-80
2023/08/18 12:41:27;;;;;;;7.03;6.32;;;21.50;99.90;;;;;;5039323;28;20079;-82
2023/08/18 12:43:53;;;;;;;11.63;8.05;;;21.60;99.90;;;;;;5039133;28;20041;-82